createdAt,value
2018-10-16T00:02:05.223Z,100380.30
2018-10-16T00:04:32.663Z,100379.97
2018-10-16T00:07:00.101Z,100383.79
2018-10-16T00:09:27.539Z,100393.81
2018-10-16T00:11:54.967Z,100389.02
2018-10-16T00:14:22.397Z,100385.57
2018-10-16T00:16:49.823Z,100385.49
2018-10-16T00:19:17.259Z,100383.91
2018-10-16T00:21:44.683Z,100381.73
2018-10-16T00:24:12.132Z,100379.96
2018-10-16T00:26:39.556Z,100372.58
2018-10-16T00:29:06.995Z,100369.56
2018-10-16T00:31:34.423Z,100369.12
2018-10-16T00:34:01.860Z,100367.34
2018-10-16T00:36:29.293Z,100376.82
2018-10-16T00:38:56.732Z,100375.93
2018-10-16T00:41:24.164Z,100373.80
2018-10-16T00:43:51.608Z,100369.90
2018-10-16T00:46:19.059Z,100359.89
2018-10-16T00:48:46.484Z,100372.52
2018-10-16T00:51:13.917Z,100375.01
2018-10-16T00:53:41.347Z,100376.23
2018-10-16T00:56:08.783Z,100371.41
2018-10-16T00:58:36.219Z,100369.66
2018-10-16T01:01:03.659Z,100369.61
2018-10-16T01:03:31.172Z,100359.70
2018-10-16T01:05:58.606Z,100366.59
2018-10-16T01:08:26.048Z,100365.19
2018-10-16T01:10:53.483Z,100369.13
2018-10-16T01:13:20.911Z,100367.83
2018-10-16T01:15:48.426Z,100368.32
2018-10-16T01:18:15.859Z,100366.55
2018-10-16T01:20:43.312Z,100363.94
2018-10-16T01:23:10.738Z,100360.84
2018-10-16T01:25:38.174Z,100358.22
2018-10-16T01:28:05.616Z,100359.12
2018-10-16T01:30:33.096Z,100353.45
2018-10-16T01:33:00.538Z,100354.80
2018-10-16T01:35:28.024Z,100345.23
2018-10-16T01:37:55.451Z,100344.39
2018-10-16T01:40:22.901Z,100352.19
2018-10-16T01:42:50.330Z,100347.02
2018-10-16T01:45:17.764Z,100345.22
2018-10-16T01:47:45.288Z,100346.59
2018-10-16T01:50:12.727Z,100350.50
2018-10-16T01:52:40.220Z,100345.27
2018-10-16T01:55:07.669Z,100343.48
2018-10-16T01:57:35.136Z,100342.69
2018-10-16T02:00:02.580Z,100344.41
2018-10-16T02:02:30.083Z,100340.45
2018-10-16T02:04:57.544Z,100336.17
2018-10-16T02:07:24.982Z,100344.40
2018-10-16T02:09:52.415Z,100343.08
2018-10-16T02:12:19.879Z,100349.24
2018-10-16T02:14:47.418Z,100344.39
2018-10-16T02:17:14.767Z,100347.48
2018-10-16T02:19:42.222Z,100352.66
2018-10-16T02:22:09.723Z,100353.47
2018-10-16T02:24:37.246Z,100352.69
2018-10-16T02:27:04.732Z,100354.33
2018-10-16T02:29:32.292Z,100357.39
2018-10-16T02:31:59.748Z,100356.13
2018-10-16T02:34:27.211Z,100359.57
2018-10-16T02:36:54.651Z,100357.38
2018-10-16T02:39:22.107Z,100356.92
2018-10-16T02:41:49.576Z,100361.70
2018-10-16T02:44:17.041Z,100364.75
2018-10-16T02:46:44.496Z,100360.86
2018-10-16T02:49:11.956Z,100364.29
2018-10-16T02:51:39.386Z,100368.19
2018-10-16T02:54:06.916Z,100354.17
2018-10-16T02:56:34.353Z,100352.44
2018-10-16T02:59:01.791Z,100353.79
2018-10-16T03:01:29.228Z,100356.48
2018-10-16T03:03:56.670Z,100359.52
2018-10-16T03:06:24.160Z,100362.09
2018-10-16T03:08:51.589Z,100370.72
2018-10-16T03:11:19.073Z,100372.91
2018-10-16T03:13:46.532Z,100374.16
2018-10-16T03:16:13.979Z,100385.98
2018-10-16T03:18:41.429Z,100380.66
2018-10-16T03:21:08.847Z,100379.81
2018-10-16T03:23:42.603Z,100383.78
2018-10-16T03:26:10.046Z,100384.62
2018-10-16T03:28:37.490Z,100385.44
2018-10-16T03:31:04.923Z,100388.94
2018-10-16T03:33:32.363Z,100383.31
2018-10-16T03:35:59.799Z,100383.25
2018-10-16T03:38:27.231Z,100388.11
2018-10-16T03:40:54.671Z,100386.30
2018-10-16T03:43:22.099Z,100392.40
2018-10-16T03:45:49.542Z,100396.31
2018-10-16T03:48:16.976Z,100396.71
2018-10-16T03:50:44.408Z,100394.95
2018-10-16T03:53:11.840Z,100391.04
2018-10-16T03:55:39.283Z,100397.11
2018-10-16T03:58:06.727Z,100385.80
2018-10-16T04:00:34.160Z,100384.47
2018-10-16T04:03:01.593Z,100379.55
2018-10-16T04:05:29.051Z,100380.08
2018-10-16T04:07:56.467Z,100379.63
2018-10-16T04:10:23.911Z,100378.80
2018-10-16T04:12:51.353Z,100384.84
2018-10-16T04:15:18.792Z,100387.53
2018-10-16T04:17:46.305Z,100381.81
2018-10-16T04:20:13.711Z,100381.36
2018-10-16T04:22:41.129Z,100386.14
2018-10-16T04:25:08.979Z,100383.97
2018-10-16T04:27:36.387Z,100384.77
2018-10-16T04:30:03.800Z,100384.34
2018-10-16T04:32:31.223Z,100384.34
2018-10-16T04:34:58.642Z,100384.70
2018-10-16T04:37:26.050Z,100397.83
2018-10-16T04:39:53.464Z,100387.39
2018-10-16T04:42:20.912Z,100387.00
2018-10-16T04:44:48.311Z,100389.16
2018-10-16T04:47:15.737Z,100387.77
2018-10-16T04:49:43.153Z,100400.80
2018-10-16T04:52:10.575Z,100405.65
2018-10-16T04:54:37.992Z,100401.73
2018-10-16T04:57:05.407Z,100407.78
2018-10-16T04:59:32.828Z,100409.47
2018-10-16T05:02:00.243Z,100415.97
2018-10-16T05:07:17.234Z,100412.50
2018-10-16T05:09:44.658Z,100421.60
2018-10-16T05:12:12.100Z,100426.00
2018-10-16T05:14:39.556Z,100421.21
2018-10-16T05:17:06.978Z,100435.06
2018-10-16T05:19:34.405Z,100431.13
2018-10-16T05:22:01.853Z,100432.94
2018-10-16T05:24:29.275Z,100434.27
2018-10-16T05:26:56.693Z,100433.37
2018-10-16T05:29:24.120Z,100429.52
2018-10-16T05:31:51.590Z,100428.61
2018-10-16T05:34:19.033Z,100436.85
2018-10-16T05:36:46.493Z,100430.70
2018-10-16T05:39:13.971Z,100434.16
2018-10-16T05:41:41.379Z,100433.77
2018-10-16T05:44:09.107Z,100432.85
2018-10-16T05:46:36.575Z,100428.45
2018-10-16T05:49:04.250Z,100429.73
2018-10-16T05:51:31.768Z,100435.88
2018-10-16T05:53:59.190Z,100432.30
2018-10-16T05:56:26.627Z,100439.28
2018-10-16T05:58:54.044Z,100440.70
2018-10-16T06:01:21.467Z,100442.85
2018-10-16T06:03:48.884Z,100442.40
2018-10-16T06:06:16.320Z,100442.41
2018-10-16T06:08:43.750Z,100445.88
2018-10-16T06:11:11.272Z,100444.42
2018-10-16T06:13:38.695Z,100448.86
2018-10-16T06:16:06.132Z,100445.00
2018-10-16T06:18:33.541Z,100449.34
2018-10-16T06:21:01.633Z,100439.60
2018-10-16T06:23:29.280Z,100447.91
2018-10-16T06:25:56.709Z,100440.45
2018-10-16T06:28:25.494Z,100443.55
2018-10-16T06:30:52.914Z,100449.91
2018-10-16T06:33:22.977Z,100453.16
2018-10-16T06:35:50.354Z,100459.16
2018-10-16T06:38:17.796Z,100453.48
2018-10-16T06:40:45.337Z,100451.47
2018-10-16T06:43:12.899Z,100457.09
2018-10-16T06:45:40.324Z,100459.38
2018-10-16T06:48:08.332Z,100455.72
2018-10-16T06:50:35.676Z,100460.84
2018-10-16T06:53:03.288Z,100465.20
2018-10-16T06:55:30.672Z,100463.95
2018-10-16T06:57:58.187Z,100466.87
2018-10-16T07:00:25.633Z,100464.52
2018-10-16T07:02:53.114Z,100470.55
2018-10-16T07:05:20.532Z,100477.36
2018-10-16T07:07:47.952Z,100481.25
2018-10-16T07:10:15.485Z,100479.66
2018-10-16T07:12:42.941Z,100475.81
2018-10-16T07:15:10.630Z,100475.37
2018-10-16T07:17:38.061Z,100474.44
2018-10-16T07:20:05.461Z,100479.73
2018-10-16T07:22:32.894Z,100482.52
2018-10-16T07:25:00.313Z,100485.67
2018-10-16T07:27:27.747Z,100482.77
2018-10-16T07:29:55.187Z,100484.55
2018-10-16T07:32:22.611Z,100481.08
2018-10-16T07:34:50.088Z,100482.25
2018-10-16T07:37:17.513Z,100477.63
2018-10-16T07:39:44.924Z,100485.61
2018-10-16T07:42:12.360Z,100483.88
2018-10-16T07:44:39.792Z,100481.27
2018-10-16T07:47:07.465Z,100488.38
2018-10-16T07:49:34.879Z,100485.42
2018-10-16T07:52:02.365Z,100484.16
2018-10-16T07:54:29.845Z,100485.98
2018-10-16T07:56:57.231Z,100483.80
2018-10-16T07:59:24.654Z,100485.97
2018-10-16T08:01:52.093Z,100484.23
2018-10-16T08:04:19.538Z,100495.59
2018-10-16T08:06:46.962Z,100489.91
2018-10-16T08:09:15.576Z,100488.59
2018-10-16T08:11:47.312Z,100492.09
2018-10-16T08:14:15.902Z,100487.19
2018-10-16T08:16:44.485Z,100492.02
2018-10-16T08:19:12.044Z,100488.58
2018-10-16T08:21:39.475Z,100492.09
2018-10-16T08:24:07.162Z,100485.95
2018-10-16T08:26:34.590Z,100485.08
2018-10-16T08:29:02.106Z,100488.14
2018-10-16T08:31:30.261Z,100487.73
2018-10-16T08:33:57.764Z,100483.34
2018-10-16T08:36:25.264Z,100482.93
2018-10-16T08:38:52.542Z,100476.37
2018-10-16T08:41:19.972Z,100482.45
2018-10-16T08:43:48.984Z,100481.14
2018-10-16T08:46:16.393Z,100485.48
2018-10-16T08:48:44.413Z,100481.54
2018-10-16T08:51:12.001Z,100480.66
2018-10-16T08:53:39.433Z,100481.59
2018-10-16T08:56:06.853Z,100477.20
2018-10-16T08:58:34.390Z,100478.06
2018-10-16T09:01:01.810Z,100475.42
2018-10-16T09:03:29.244Z,100485.89
2018-10-16T09:05:56.679Z,100476.20
2018-10-16T09:08:24.114Z,100481.85
2018-10-16T09:10:51.551Z,100487.10
2018-10-16T09:13:18.977Z,100481.81
2018-10-16T09:15:46.466Z,100480.50
2018-10-16T09:18:13.889Z,100487.48
2018-10-16T09:20:41.329Z,100483.22
2018-10-16T09:23:08.897Z,100483.61
2018-10-16T09:25:36.324Z,100486.67
2018-10-16T09:28:04.067Z,100485.39
2018-10-16T09:30:31.492Z,100480.44
2018-10-16T09:32:58.932Z,100483.95
2018-10-16T09:35:26.582Z,100488.20
2018-10-16T09:37:54.033Z,100490.44
2018-10-16T09:40:21.454Z,100483.42
2018-10-16T09:42:48.876Z,100492.05
2018-10-16T09:45:16.381Z,100491.56
2018-10-16T09:47:43.830Z,100491.97
2018-10-16T09:50:11.292Z,100488.24
2018-10-16T09:52:38.813Z,100489.66
2018-10-16T09:55:06.249Z,100487.87
2018-10-16T09:57:33.672Z,100485.28
2018-10-16T10:00:01.357Z,100484.30
2018-10-16T10:02:28.784Z,100479.69
2018-10-16T10:04:56.340Z,100475.79
2018-10-16T10:07:23.769Z,100475.70
2018-10-16T10:09:51.192Z,100475.70
2018-10-16T10:12:18.652Z,100478.64
2018-10-16T10:14:46.073Z,100471.67
2018-10-16T10:17:13.501Z,100472.64
2018-10-16T10:19:40.932Z,100469.61
2018-10-16T10:22:08.365Z,100463.11
2018-10-16T10:24:35.805Z,100470.36
2018-10-16T10:27:03.268Z,100466.48
2018-10-16T10:29:30.810Z,100465.52
2018-10-16T10:31:58.176Z,100465.07
2018-10-16T10:34:25.630Z,100457.06
2018-10-16T10:36:53.057Z,100458.38
2018-10-16T10:39:20.545Z,100455.70
2018-10-16T10:41:47.964Z,100455.80
2018-10-16T10:44:15.484Z,100442.45
2018-10-16T10:46:42.896Z,100445.77
2018-10-16T10:49:10.327Z,100442.26
2018-10-16T10:51:38.171Z,100444.39
2018-10-16T10:54:05.179Z,100444.89
2018-10-16T10:56:32.722Z,100438.36
2018-10-16T10:59:00.073Z,100437.42
2018-10-16T11:01:27.605Z,100440.45
2018-10-16T11:03:55.027Z,100433.66
2018-10-16T11:06:22.456Z,100439.47
2018-10-16T11:08:49.903Z,100432.77
2018-10-16T11:11:17.395Z,100440.29
2018-10-16T11:13:44.824Z,100437.04
2018-10-16T11:16:12.512Z,100433.37
2018-10-16T11:18:39.956Z,100432.63
2018-10-16T11:21:08.044Z,100424.00
2018-10-16T11:23:35.500Z,100431.27
2018-10-16T11:26:02.939Z,100435.09
2018-10-16T11:28:30.411Z,100430.09
2018-10-16T11:30:57.828Z,100428.21
2018-10-16T11:33:25.261Z,100428.02
2018-10-16T11:35:52.683Z,100431.77
2018-10-16T11:38:20.113Z,100431.09
2018-10-16T11:40:47.539Z,100425.88
2018-10-16T11:43:15.048Z,100423.19
2018-10-16T11:45:42.494Z,100420.42
2018-10-16T11:48:09.860Z,100421.30
2018-10-16T11:50:37.401Z,100422.88
2018-10-16T11:53:04.816Z,100417.79
2018-10-16T11:55:32.250Z,100420.91
2018-10-16T11:57:59.700Z,100422.41
2018-10-16T12:00:27.160Z,100417.16
2018-10-16T12:02:55.196Z,100419.60
2018-10-16T12:05:22.852Z,100418.98
2018-10-16T12:07:50.308Z,100421.42
2018-10-16T12:10:17.688Z,100423.67
2018-10-16T12:12:45.116Z,100425.99
2018-10-16T12:15:12.620Z,100421.48
2018-10-16T12:17:45.496Z,100429.17
2018-10-16T12:20:17.636Z,100424.23
2018-10-16T12:22:45.772Z,100420.85
2018-10-16T12:25:13.263Z,100425.28
2018-10-16T12:27:40.634Z,100423.54
2018-10-16T12:30:08.383Z,100416.41
2018-10-16T12:32:36.161Z,100417.27
2018-10-16T12:35:03.588Z,100418.70
2018-10-16T12:37:31.013Z,100415.52
2018-10-16T12:39:58.462Z,100411.81
2018-10-16T12:42:25.881Z,100420.41
2018-10-16T12:44:53.407Z,100416.89
2018-10-16T12:47:20.793Z,100420.97
2018-10-16T12:49:48.224Z,100420.29
2018-10-16T12:52:15.640Z,100419.16
2018-10-16T12:54:43.069Z,100420.41
2018-10-16T12:57:10.503Z,100415.77
2018-10-16T12:59:37.918Z,100419.16
2018-10-16T13:02:05.367Z,100419.95
2018-10-16T13:04:32.837Z,100420.92
2018-10-16T13:07:06.601Z,100427.23
2018-10-16T13:09:34.020Z,100425.42
2018-10-16T13:12:01.438Z,100425.75
2018-10-16T13:14:29.037Z,100425.30
2018-10-16T13:16:56.527Z,100418.79
2018-10-16T13:19:23.920Z,100421.91
2018-10-16T13:21:51.446Z,100424.60
2018-10-16T13:24:18.955Z,100425.58
2018-10-16T13:26:46.368Z,100418.13
2018-10-16T13:29:13.864Z,100422.30
2018-10-16T13:31:41.232Z,100422.73
2018-10-16T13:34:08.734Z,100418.67
2018-10-16T13:36:36.135Z,100423.83
2018-10-16T13:39:04.757Z,100423.87
2018-10-16T13:41:32.206Z,100423.68
2018-10-16T13:43:59.711Z,100427.45
2018-10-16T13:46:27.136Z,100429.59
2018-10-16T13:48:54.608Z,100432.20
2018-10-16T13:51:22.058Z,100429.84
2018-10-16T13:53:49.518Z,100438.04
2018-10-16T13:56:16.967Z,100434.67
2018-10-16T13:58:44.403Z,100435.55
2018-10-16T14:01:11.855Z,100434.30
2018-10-16T14:03:39.308Z,100429.14
2018-10-16T14:06:06.744Z,100434.59
2018-10-16T14:08:34.198Z,100433.91
2018-10-16T14:11:01.636Z,100436.25
2018-10-16T14:13:29.079Z,100440.19
2018-10-16T14:15:56.523Z,100438.04
2018-10-16T14:18:23.965Z,100438.62
2018-10-16T14:20:51.427Z,100435.11
2018-10-16T14:23:18.889Z,100439.66
2018-10-16T14:25:46.319Z,100440.04
2018-10-16T14:28:13.848Z,100444.94
2018-10-16T14:30:41.218Z,100447.13
2018-10-16T14:33:10.490Z,100448.99
2018-10-16T14:35:37.916Z,100449.89
2018-10-16T14:38:05.412Z,100446.39
2018-10-16T14:40:32.788Z,100444.67
2018-10-16T14:43:00.345Z,100452.25
2018-10-16T14:45:27.785Z,100445.38
2018-10-16T14:47:55.243Z,100447.57
2018-10-16T14:50:22.634Z,100447.52
2018-10-16T14:52:50.069Z,100449.28
2018-10-16T14:55:17.540Z,100450.98
2018-10-16T14:57:45.044Z,100449.72
2018-10-16T15:00:13.233Z,100457.70
2018-10-16T15:02:40.649Z,100460.30
2018-10-16T15:05:08.659Z,100458.64
2018-10-16T15:07:36.369Z,100457.77
2018-10-16T15:10:03.927Z,100456.58
2018-10-16T15:12:32.288Z,100464.62
2018-10-16T15:15:00.483Z,100468.21
2018-10-16T15:17:28.524Z,100465.27
2018-10-16T15:19:55.953Z,100468.77
2018-10-16T15:22:23.397Z,100470.13
2018-10-16T15:24:50.810Z,100470.34
2018-10-16T15:27:18.449Z,100471.19
2018-10-16T15:29:45.867Z,100468.59
2018-10-16T15:32:13.430Z,100469.09
2018-10-16T15:34:40.769Z,100477.98
2018-10-16T15:37:08.276Z,100483.27
2018-10-16T15:39:35.712Z,100479.35
2018-10-16T15:42:03.158Z,100481.24
2018-10-16T15:44:30.560Z,100486.03
2018-10-16T15:46:57.992Z,100492.62
2018-10-16T15:49:25.494Z,100492.66
2018-10-16T15:51:52.957Z,100501.50
2018-10-16T15:54:20.344Z,100499.77
2018-10-16T15:56:47.787Z,100502.45
2018-10-16T15:59:15.229Z,100499.39
2018-10-16T16:01:42.656Z,100496.34
2018-10-16T16:04:10.223Z,100505.58
2018-10-16T16:06:37.584Z,100508.20
2018-10-16T16:09:05.746Z,100508.63
2018-10-16T16:11:33.176Z,100514.78
2018-10-16T16:14:01.545Z,100515.63
2018-10-16T16:16:28.918Z,100521.77
2018-10-16T16:18:56.361Z,100520.48
2018-10-16T16:21:23.792Z,100522.66
2018-10-16T16:23:51.385Z,100526.56
2018-10-16T16:26:18.876Z,100534.00
2018-10-16T16:28:46.253Z,100535.16
2018-10-16T16:31:13.716Z,100541.61
2018-10-16T16:33:41.131Z,100542.34
2018-10-16T16:36:08.719Z,100545.92
2018-10-16T16:38:36.001Z,100549.14
2018-10-16T16:41:03.489Z,100549.95
2018-10-16T16:43:31.554Z,100552.73
2018-10-16T16:45:59.000Z,100552.61
2018-10-16T16:48:26.372Z,100558.75
2018-10-16T16:50:53.792Z,100557.00
2018-10-16T16:53:21.231Z,100563.03
2018-10-16T16:55:49.416Z,100563.01
2018-10-16T16:58:16.873Z,100563.80
2018-10-16T17:00:44.425Z,100561.39
2018-10-16T17:03:11.887Z,100562.29
2018-10-16T17:05:39.315Z,100566.05
2018-10-16T17:08:06.775Z,100571.06
2018-10-16T17:10:34.255Z,100570.20
2018-10-16T17:13:01.904Z,100570.10
2018-10-16T17:15:29.385Z,100570.48
2018-10-16T17:17:56.845Z,100578.05
2018-10-16T17:20:24.294Z,100583.64
2018-10-16T17:22:51.752Z,100579.84
2018-10-16T17:25:19.373Z,100581.34
2018-10-16T17:27:46.672Z,100586.13
2018-10-16T17:30:14.812Z,100580.66
2018-10-16T17:32:43.024Z,100583.27
2018-10-16T17:35:11.399Z,100583.52
2018-10-16T17:37:39.332Z,100588.74
2018-10-16T17:40:06.760Z,100582.47
2018-10-16T17:42:34.280Z,100586.83
2018-10-16T17:45:01.734Z,100592.39
2018-10-16T17:47:29.231Z,100590.20
2018-10-16T17:49:56.657Z,100594.76
2018-10-16T17:52:24.134Z,100597.91
2018-10-16T17:54:51.557Z,100594.30
2018-10-16T17:57:19.036Z,100596.59
2018-10-16T17:59:46.420Z,100604.38
2018-10-16T18:02:13.858Z,100606.02
2018-10-16T18:04:41.307Z,100605.09
2018-10-16T18:07:08.712Z,100604.42
2018-10-16T18:09:36.208Z,100596.99
2018-10-16T18:12:03.608Z,100595.02
2018-10-16T18:14:31.034Z,100599.63
2018-10-16T18:16:58.456Z,100597.11
2018-10-16T18:19:25.880Z,100592.70
2018-10-16T18:21:53.395Z,100594.72
2018-10-16T18:24:20.823Z,100600.91
2018-10-16T18:26:48.261Z,100599.05
2018-10-16T18:29:15.694Z,100603.92
2018-10-16T18:31:43.129Z,100603.08
2018-10-16T18:34:10.562Z,100608.55
2018-10-16T18:36:37.988Z,100612.91
2018-10-16T18:39:05.478Z,100617.92
2018-10-16T18:41:32.845Z,100616.54
2018-10-16T18:44:00.280Z,100624.02
2018-10-16T18:46:27.708Z,100624.64
2018-10-16T18:48:55.270Z,100630.64
2018-10-16T18:51:22.629Z,100629.71
2018-10-16T18:53:50.044Z,100639.23
2018-10-16T18:56:17.473Z,100634.34
2018-10-16T18:58:44.960Z,100639.34
2018-10-16T19:01:12.397Z,100639.50
2018-10-16T19:03:39.825Z,100637.50
2018-10-16T19:06:07.260Z,100642.22
2018-10-16T19:08:34.685Z,100647.59
2018-10-16T19:11:02.138Z,100642.60
2018-10-16T19:13:29.605Z,100645.20
2018-10-16T19:15:57.039Z,100640.77
2018-10-16T19:18:24.481Z,100645.58
2018-10-16T19:20:51.909Z,100644.41
2018-10-16T19:23:19.341Z,100649.45
2018-10-16T19:25:46.788Z,100643.20
2018-10-16T19:28:14.224Z,100644.25
2018-10-16T19:30:41.656Z,100651.00
2018-10-16T19:33:09.120Z,100635.80
2018-10-16T19:35:36.527Z,100634.38
2018-10-16T19:38:04.089Z,100635.70
2018-10-16T19:40:31.512Z,100640.84
2018-10-16T19:42:58.992Z,100638.88
2018-10-16T19:45:26.430Z,100644.20
2018-10-16T19:47:53.872Z,100652.09
2018-10-16T19:50:21.466Z,100652.02
2018-10-16T19:52:48.868Z,100653.22
2018-10-16T19:55:16.296Z,100665.77
2018-10-16T19:57:43.743Z,100664.65
2018-10-16T20:00:11.194Z,100665.38
2018-10-16T20:02:38.724Z,100667.78
2018-10-16T20:05:06.162Z,100665.30
2018-10-16T20:07:33.605Z,100663.72
2018-10-16T20:10:01.127Z,100666.23
2018-10-16T20:12:28.563Z,100666.19
2018-10-16T20:14:56.044Z,100657.48
2018-10-16T20:17:23.464Z,100662.45
2018-10-16T20:19:50.903Z,100652.62
2018-10-16T20:22:18.335Z,100656.38
2018-10-16T20:24:45.852Z,100655.61
2018-10-16T20:27:13.212Z,100656.83
2018-10-16T20:29:40.650Z,100662.36
2018-10-16T20:32:08.077Z,100664.37
2018-10-16T20:34:35.596Z,100659.42
2018-10-16T20:37:03.077Z,100665.30
2018-10-16T20:39:30.476Z,100663.20
2018-10-16T20:41:57.920Z,100660.61
2018-10-16T20:44:25.334Z,100654.98
2018-10-16T20:46:52.760Z,100656.38
2018-10-16T20:49:20.212Z,100651.64
2018-10-16T20:51:47.644Z,100658.20
2018-10-16T20:54:15.081Z,100652.88
2018-10-16T20:56:42.505Z,100660.19
2018-10-16T20:59:09.944Z,100655.48
2018-10-16T21:01:37.360Z,100660.39
2018-10-16T21:04:04.884Z,100659.95
2018-10-16T21:06:32.432Z,100657.55
2018-10-16T21:08:59.757Z,100657.63
2018-10-16T21:11:27.252Z,100656.22
2018-10-16T21:13:54.682Z,100649.84
2018-10-16T21:16:22.099Z,100654.70
2018-10-16T21:18:49.528Z,100651.00
2018-10-16T21:21:16.959Z,100646.13
2018-10-16T21:23:44.399Z,100651.33
2018-10-16T21:26:11.835Z,100647.16
2018-10-16T21:28:39.257Z,100645.78
2018-10-16T21:31:06.762Z,100650.97
2018-10-16T21:33:34.164Z,100649.89
2018-10-16T21:36:01.600Z,100643.83
2018-10-16T21:38:29.260Z,100646.36
2018-10-16T21:40:56.762Z,100638.17
2018-10-16T21:43:24.143Z,100644.94
2018-10-16T21:45:51.571Z,100645.59
2018-10-16T21:48:19.190Z,100651.14
2018-10-16T21:50:46.635Z,100643.02
2018-10-16T21:53:14.154Z,100650.99
2018-10-16T21:55:41.698Z,100648.40
2018-10-16T21:58:09.135Z,100645.67
2018-10-16T22:00:41.983Z,100643.70
2018-10-16T22:03:09.410Z,100644.30
2018-10-16T22:05:36.839Z,100646.41
2018-10-16T22:08:04.384Z,100646.13
2018-10-16T22:10:31.720Z,100647.58
2018-10-16T22:13:00.181Z,100640.55
2018-10-16T22:15:27.606Z,100633.36
2018-10-16T22:17:55.002Z,100637.07
2018-10-16T22:20:22.432Z,100637.48
2018-10-16T22:22:49.859Z,100631.36
2018-10-16T22:25:17.506Z,100637.05
2018-10-16T22:27:44.898Z,100643.33
2018-10-16T22:30:12.328Z,100642.94
2018-10-16T22:32:39.748Z,100633.70
2018-10-16T22:35:07.388Z,100636.70
2018-10-16T22:37:34.775Z,100632.16
2018-10-16T22:40:02.216Z,100636.14
2018-10-16T22:42:29.647Z,100638.98
2018-10-16T22:44:57.172Z,100646.72
2018-10-16T22:47:24.588Z,100638.66
2018-10-16T22:49:52.032Z,100642.99
2018-10-16T22:52:19.456Z,100639.55
2018-10-16T22:54:46.890Z,100635.45
2018-10-16T22:57:14.316Z,100637.41
2018-10-16T22:59:42.167Z,100639.89
2018-10-16T23:02:09.601Z,100637.63
2018-10-16T23:04:37.071Z,100637.40
2018-10-16T23:07:04.499Z,100639.83
2018-10-16T23:09:31.927Z,100633.20
2018-10-16T23:11:59.360Z,100637.53
2018-10-16T23:14:26.800Z,100643.02
2018-10-16T23:16:54.267Z,100646.11
2018-10-16T23:19:21.695Z,100641.31
2018-10-16T23:21:49.176Z,100638.48
2018-10-16T23:24:16.728Z,100640.70
2018-10-16T23:26:44.152Z,100642.02
2018-10-16T23:29:11.669Z,100640.33
2018-10-16T23:31:39.100Z,100643.30
2018-10-16T23:34:06.531Z,100638.38
2018-10-16T23:36:33.971Z,100645.88
2018-10-16T23:39:01.404Z,100649.31
2018-10-16T23:41:28.868Z,100645.80
2018-10-16T23:43:56.286Z,100648.52
2018-10-16T23:46:30.203Z,100650.73
2018-10-16T23:48:57.666Z,100648.73
2018-10-16T23:51:25.068Z,100651.94
2018-10-16T23:53:52.501Z,100651.60
2018-10-16T23:56:19.925Z,100651.19
2018-10-16T23:58:47.396Z,100654.12
